Atlasgracht — PCVX — position and weather

sailwx.info

Track history (hours):
 
Tides and Currents Weather Stations Pressure Air Temp Water Temp Dewpoint Dewpoint Depression Visibility Wind Speed Wind Dir Waves Ship Positions

Atlasgracht

Last reported at 2019-May-20 16:01 UTC. Time now 2019-May-20 16:28 UTC.
Position N 59°37' E 022°49'.

Length 130 m; beam 19 m; draft 9 m.

Type: Cargo ship. MMSI: 244060802.

Date/timePositionNaut miles runAvg speedWind from/ knotsBaromVisibWave heightAir tempDewpointWater temp
2019-May-20 16:01N 59°37' E 022°49'611.1
2019-May-20 15:30N 59°36' E 022°38'611.5
2019-May-20 15:00N 59°34' E 022°27'611.4
2019-May-20 14:30N 59°31' E 022°18'611.4
2019-May-20 14:00N 59°28' E 022°09'611.6
2019-May-20 13:30N 59°25' E 021°59'611.6
2019-May-20 13:00N 59°21' E 021°49'611.3
2019-May-20 12:31N 59°18' E 021°40'510.7
2019-May-20 12:00N 59°15' E 021°31'511.1
2019-May-20 11:31N 59°13' E 021°22'711.3
2019-May-20 10:53N 59°09' E 021°11'12 0.5
2019-May-19 09:03N 59°15' E 021°30'211.3
2019-May-19 08:51N 59°16' E 021°34'411.4
2019-May-19 08:31N 59°18' E 021°40'611.5
2019-May-19 08:01N 59°21' E 021°49'611.5
2019-May-19 07:30N 59°24' E 021°59'611.5
2019-May-19 07:01N 59°28' E 022°08'611.5
2019-May-19 06:31N 59°31' E 022°18'611.1
2019-May-19 06:00N 59°34' E 022°27'611.1
2019-May-19 05:31N 59°36' E 022°37'611.1
2019-May-19 05:01N 59°37' E 022°48'611.2
2019-May-19 04:30N 59°39' E 022°58'5 9.9
2019-May-19 04:00N 59°43' E 023°04'4 8.8
2019-May-19 03:31N 59°47' E 023°03'611.8
2019-May-19 03:01N 59°48' E 023°14'4 8.4
2019-May-19 02:30N 59°53' E 023°14'0 0.5
2019-May-19 02:00N 59°53' E 023°14'0 0.0
2019-May-19 01:26N 59°53' E 023°14'0 0.0
2019-May-19 00:59N 59°53' E 023°14'0 0.0
2019-May-19 00:26N 59°53' E 023°14'0 0.0
2019-May-18 23:59N 59°53' E 023°14'0 0.0
2019-May-18 23:29N 59°53' E 023°14'0 0.0
2019-May-18 22:59N 59°53' E 023°14'0 0.0
2019-May-18 22:26N 59°53' E 023°14'0 0.0
2019-May-18 21:59N 59°53' E 023°14'0 0.0
2019-May-18 21:29N 59°53' E 023°14'0 0.0
2019-May-18 20:56N 59°53' E 023°14'0 0.0
2019-May-18 20:20N 59°53' E 023°14'0 0.0
2019-May-18 19:59N 59°53' E 023°14'0 0.0
2019-May-18 19:29N 59°53' E 023°14'0 0.0
2019-May-18 18:56N 59°53' E 023°14'0 0.1
2019-May-18 18:30N 59°53' E 023°14'4 7.7
2019-May-18 18:00N 59°49' E 023°17'611.3
2019-May-18 17:30N 59°48' E 023°06'4 7.2
2019-May-18 17:00N 59°45' E 023°03'4 8.8
2019-May-18 16:30N 59°40' E 023°03'5 9.9
2019-May-18 16:00N 59°38' E 022°54'510.6
2019-May-18 15:30N 59°36' E 022°44'511.0
2019-May-18 15:00N 59°35' E 022°34'611.2
2019-May-18 14:30N 59°33' E 022°24'611.2
2019-May-18 14:00N 59°30' E 022°15'611.1
2019-May-18 13:30N 59°27' E 022°05'611.2
2019-May-18 13:00N 59°23' E 021°56'511.0
2019-May-18 12:30N 59°20' E 021°47'611.1
2019-May-18 12:00N 59°17' E 021°38'611.2
2019-May-18 11:30N 59°14' E 021°29'611.3
2019-May-18 11:00N 59°11' E 021°20'611.5
2019-May-18 10:30N 59°08' E 021°10'611.5
2019-May-18 10:00N 59°05' E 021°01'611.5
2019-May-18 09:28N 59°01' E 020°51'911.3
2019-May-18 08:41N 58°56' E 020°36'311.3
2019-May-18 08:25N 58°55' E 020°32'5 0.3
2019-May-17 17:06N 58°52' E 020°25'0 0.2
2019-May-17 15:47N 58°51' E 020°25'32 5.5
2019-May-17 09:58N 59°09' E 021°17'511.5
2019-May-17 09:30N 59°12' E 021°25'611.3
2019-May-17 09:00N 59°15' E 021°34'611.2
2019-May-17 08:30N 59°19' E 021°43'611.2
2019-May-17 08:00N 59°22' E 021°53'611.2
2019-May-17 07:30N 59°25' E 022°02'611.1
2019-May-17 07:00N 59°28' E 022°11'611.0
2019-May-17 06:30N 59°31' E 022°20'611.1
2019-May-17 06:00N 59°34' E 022°29'611.1
2019-May-17 05:30N 59°36' E 022°39'510.9
2019-May-17 05:00N 59°37' E 022°50'611.1
2019-May-17 04:30N 59°39' E 023°00'510.7
2019-May-17 04:00N 59°44' E 023°03'4 8.1
2019-May-17 03:30N 59°48' E 023°04'611.6
2019-May-17 03:00N 59°49' E 023°16'4 8.1
2019-May-17 02:30N 59°53' E 023°14'0 0.1
2019-May-17 02:00N 59°53' E 023°14'0 0.0
2019-May-17 01:26N 59°53' E 023°14'0 0.0
2019-May-17 00:56N 59°53' E 023°14'0 0.0
2019-May-17 00:26N 59°53' E 023°14'0 0.0
2019-May-16 23:56N 59°53' E 023°14'0 0.0
2019-May-16 23:26N 59°53' E 023°14'0 0.0
2019-May-16 22:56N 59°53' E 023°14'0 0.0
2019-May-16 22:26N 59°53' E 023°14'0 0.0
2019-May-16 21:56N 59°53' E 023°14'0 0.0
2019-May-16 21:26N 59°53' E 023°14'0 0.0
2019-May-16 20:56N 59°53' E 023°14'0 0.1
2019-May-16 20:30N 59°53' E 023°14'4 7.1
2019-May-16 20:00N 59°50' E 023°17'611.1
2019-May-16 19:30N 59°48' E 023°07'4 7.4
2019-May-16 19:00N 59°45' E 023°03'5 9.6
2019-May-16 18:30N 59°40' E 023°04'5 9.9
2019-May-16 18:00N 59°38' E 022°55'510.8
2019-May-16 17:30N 59°36' E 022°45'510.9
2019-May-16 17:00N 59°35' E 022°34'510.7
2019-May-16 16:30N 59°33' E 022°25'511.0
2019-May-16 16:00N 59°30' E 022°16'611.2
2019-May-16 15:30N 59°26' E 022°07'611.9
2019-May-16 15:00N 59°23' E 021°57'611.9
2019-May-16 14:30N 59°20' E 021°48'611.5
2019-May-16 14:00N 59°16' E 021°39'611.3
2019-May-16 13:30N 59°13' E 021°30'611.1
2019-May-16 13:00N 59°10' E 021°21'10 0.4
2019-May-15 10:29N 59°15' E 021°37'711.6
2019-May-15 09:52N 59°19' E 021°48'411.4
2019-May-15 09:29N 59°22' E 021°55'511.0
2019-May-15 09:00N 59°25' E 022°04'611.1
2019-May-15 08:28N 59°28' E 022°13'511.4
2019-May-15 08:00N 59°32' E 022°21'612.5
2019-May-15 07:30N 59°35' E 022°32'612.2
2019-May-15 07:00N 59°36' E 022°44'611.4
2019-May-15 06:30N 59°38' E 022°55'510.6
2019-May-15 06:00N 59°41' E 023°03'510.2
2019-May-15 05:30N 59°46' E 023°01'4 8.4
2019-May-15 05:00N 59°48' E 023°08'510.2
2019-May-15 04:30N 59°50' E 023°17'3 6.0
2019-May-15 04:00N 59°53' E 023°14'0 0.0
2019-May-15 03:28N 59°53' E 023°14'0 0.0
2019-May-15 02:58N 59°53' E 023°14'0 0.0
2019-May-15 02:28N 59°53' E 023°14'0 0.0
2019-May-15 01:58N 59°53' E 023°14'0 0.0
2019-May-15 01:28N 59°53' E 023°14'0 0.0
2019-May-15 00:58N 59°53' E 023°14'0 0.0
2019-May-15 00:28N 59°53' E 023°14'0 0.0
2019-May-14 23:55N 59°53' E 023°14'0 0.0
2019-May-14 23:28N 59°53' E 023°14'0 0.0
2019-May-14 22:58N 59°53' E 023°14'0 0.0
2019-May-14 22:25N 59°53' E 023°14'0 0.0
2019-May-14 21:58N 59°53' E 023°14'0 0.0
2019-May-14 21:28N 59°53' E 023°14'0 0.0
2019-May-14 20:58N 59°53' E 023°14'0 0.0
2019-May-14 20:28N 59°53' E 023°14'0 0.0
2019-May-14 19:58N 59°53' E 023°14'0 0.0
2019-May-14 19:25N 59°53' E 023°14'0 0.0
2019-May-14 18:58N 59°53' E 023°14'0 0.0
2019-May-14 18:28N 59°53' E 023°14'0 0.0
2019-May-14 17:58N 59°53' E 023°14'0 0.0
2019-May-14 17:30N 59°53' E 023°14'1 1.8
2019-May-14 17:00N 59°52' E 023°15'4 8.4
2019-May-14 16:30N 59°48' E 023°13'611.8
2019-May-14 16:00N 59°47' E 023°02'4 8.9
2019-May-14 15:30N 59°43' E 023°05'4 8.8
2019-May-14 15:00N 59°39' E 023°01'611.2
2019-May-14 14:30N 59°37' E 022°50'611.3
2019-May-14 14:00N 59°36' E 022°40'611.5
2019-May-14 13:31N 59°34' E 022°29'611.2
2019-May-14 13:00N 59°31' E 022°20'611.0
2019-May-14 12:30N 59°28' E 022°11'611.3
2019-May-14 12:00N 59°24' E 022°02'611.4
2019-May-14 11:30N 59°21' E 021°53'611.2
2019-May-14 11:00N 59°17' E 021°45'611.4
2019-May-14 10:30N 59°14' E 021°36'611.4
2019-May-14 10:00N 59°10' E 021°27'1211.2
2019-May-14 08:56N 59°03' E 021°08'1111.3
2019-May-14 07:56N 58°57' E 020°51'611.4
2019-May-14 07:27N 58°53' E 020°42'18 0.9
2019-May-13 10:39N 59°04' E 021°09'211.5
2019-May-13 10:30N 59°05' E 021°12'611.5
2019-May-13 10:00N 59°09' E 021°20'1211.4
2019-May-13 08:56N 59°16' E 021°39'511.3
2019-May-13 08:30N 59°19' E 021°47'711.2
2019-May-13 07:53N 59°23' E 021°58'411.1
2019-May-13 07:30N 59°26' E 022°05'611.6
2019-May-13 07:00N 59°29' E 022°14'611.3
2019-May-13 06:30N 59°32' E 022°23'611.2
2019-May-13 06:00N 59°35' E 022°33'611.3
2019-May-13 05:30N 59°36' E 022°44'611.2
2019-May-13 05:00N 59°38' E 022°54'510.5
2019-May-13 04:30N 59°41' E 023°03'510.0
2019-May-13 04:00N 59°45' E 023°01'4 8.6
2019-May-13 03:30N 59°48' E 023°08'510.0
2019-May-13 03:00N 59°50' E 023°17'3 5.8
2019-May-13 02:30N 59°53' E 023°14'0 0.0
2019-May-13 02:00N 59°53' E 023°14'0 0.0
2019-May-13 01:29N 59°53' E 023°14'0 0.0
2019-May-13 00:59N 59°53' E 023°14'0 0.0
2019-May-13 00:29N 59°53' E 023°14'0 0.0
2019-May-12 23:59N 59°53' E 023°14'0 0.0
2019-May-12 23:29N 59°53' E 023°14'0 0.0
2019-May-12 22:59N 59°53' E 023°14'0 0.0
2019-May-12 22:26N 59°53' E 023°14'0 0.0
2019-May-12 21:59N 59°53' E 023°14'0 0.0
2019-May-12 21:26N 59°53' E 023°14'0 0.0
2019-May-12 20:56N 59°53' E 023°14'0 0.0
2019-May-12 20:29N 59°53' E 023°14'0 0.0
2019-May-12 19:59N 59°53' E 023°14'0 0.0
2019-May-12 19:29N 59°53' E 023°14'0 0.0
2019-May-12 18:55N 59°53' E 023°14'1 3.4
2019-May-12 18:30N 59°52' E 023°16'4 8.4
2019-May-12 18:00N 59°48' E 023°12'611.2
2019-May-12 17:30N 59°47' E 023°01'510.0
2019-May-12 17:00N 59°42' E 023°05'4 8.8
2019-May-12 16:30N 59°39' E 023°00'510.9
2019-May-12 16:00N 59°37' E 022°50'611.3
2019-May-12 15:30N 59°36' E 022°39'611.4
2019-May-12 15:00N 59°34' E 022°28'611.2
2019-May-12 14:30N 59°31' E 022°19'611.0
2019-May-12 14:00N 59°28' E 022°10'611.2
2019-May-12 13:30N 59°24' E 022°01'611.3
2019-May-12 13:00N 59°21' E 021°52'611.1
2019-May-12 12:30N 59°18' E 021°43'611.1
2019-May-12 11:58N 59°14' E 021°34'511.1
2019-May-12 11:30N 59°11' E 021°26'611.2
2019-May-12 10:58N 59°07' E 021°17'14 0.4
2019-May-10 22:34N 59°16' E 021°37'111.1
2019-May-10 22:27N 59°17' E 021°39'511.1
2019-May-10 21:59N 59°20' E 021°48'511.1
2019-May-10 21:30N 59°23' E 021°56'611.0
2019-May-10 21:00N 59°26' E 022°05'611.2
2019-May-10 20:30N 59°29' E 022°14'611.2
2019-May-10 20:00N 59°32' E 022°23'611.1
2019-May-10 19:30N 59°35' E 022°33'611.2
2019-May-10 19:00N 59°36' E 022°44'611.1
2019-May-10 18:30N 59°38' E 022°54'510.7
2019-May-10 18:00N 59°41' E 023°03'5 9.9
2019-May-10 17:30N 59°46' E 023°01'5 9.0
2019-May-10 17:00N 59°48' E 023°09'5 9.5
2019-May-10 16:30N 59°51' E 023°17'  
Track history (hours):
 
Tides and Currents Weather Stations Pressure Air Temp Water Temp Dewpoint Dewpoint Depression Visibility Wind Speed Wind Dir Waves Ship Positions

Atlasgracht

Last reported at 2019-May-20 16:01 UTC. Time now 2019-May-20 16:28 UTC.
Position N 59°37' E 022°49'.

Length 130 m; beam 19 m; draft 9 m.

Type: Cargo ship. MMSI: 244060802.

Date/timePositionNaut miles runAvg speedWind from/ knotsBaromVisibWave heightAir tempDewpointWater temp
2019-May-20 16:01N 59°37' E 022°49'611.1
2019-May-20 15:30N 59°36' E 022°38'611.5
2019-May-20 15:00N 59°34' E 022°27'611.4
2019-May-20 14:30N 59°31' E 022°18'611.4
2019-May-20 14:00N 59°28' E 022°09'611.6
2019-May-20 13:30N 59°25' E 021°59'611.6
2019-May-20 13:00N 59°21' E 021°49'611.3
2019-May-20 12:31N 59°18' E 021°40'510.7
2019-May-20 12:00N 59°15' E 021°31'511.1
2019-May-20 11:31N 59°13' E 021°22'711.3
2019-May-20 10:53N 59°09' E 021°11'12 0.5
2019-May-19 09:03N 59°15' E 021°30'211.3
2019-May-19 08:51N 59°16' E 021°34'411.4
2019-May-19 08:31N 59°18' E 021°40'611.5
2019-May-19 08:01N 59°21' E 021°49'611.5
2019-May-19 07:30N 59°24' E 021°59'611.5
2019-May-19 07:01N 59°28' E 022°08'611.5
2019-May-19 06:31N 59°31' E 022°18'611.1
2019-May-19 06:00N 59°34' E 022°27'611.1
2019-May-19 05:31N 59°36' E 022°37'611.1
2019-May-19 05:01N 59°37' E 022°48'611.2
2019-May-19 04:30N 59°39' E 022°58'5 9.9
2019-May-19 04:00N 59°43' E 023°04'4 8.8
2019-May-19 03:31N 59°47' E 023°03'611.8
2019-May-19 03:01N 59°48' E 023°14'4 8.4
2019-May-19 02:30N 59°53' E 023°14'0 0.5
2019-May-19 02:00N 59°53' E 023°14'0 0.0
2019-May-19 01:26N 59°53' E 023°14'0 0.0
2019-May-19 00:59N 59°53' E 023°14'0 0.0
2019-May-19 00:26N 59°53' E 023°14'0 0.0
2019-May-18 23:59N 59°53' E 023°14'0 0.0
2019-May-18 23:29N 59°53' E 023°14'0 0.0
2019-May-18 22:59N 59°53' E 023°14'0 0.0
2019-May-18 22:26N 59°53' E 023°14'0 0.0
2019-May-18 21:59N 59°53' E 023°14'0 0.0
2019-May-18 21:29N 59°53' E 023°14'0 0.0
2019-May-18 20:56N 59°53' E 023°14'0 0.0
2019-May-18 20:20N 59°53' E 023°14'0 0.0
2019-May-18 19:59N 59°53' E 023°14'0 0.0
2019-May-18 19:29N 59°53' E 023°14'0 0.0
2019-May-18 18:56N 59°53' E 023°14'0 0.1
2019-May-18 18:30N 59°53' E 023°14'4 7.7
2019-May-18 18:00N 59°49' E 023°17'611.3
2019-May-18 17:30N 59°48' E 023°06'4 7.2
2019-May-18 17:00N 59°45' E 023°03'4 8.8
2019-May-18 16:30N 59°40' E 023°03'5 9.9
2019-May-18 16:00N 59°38' E 022°54'510.6
2019-May-18 15:30N 59°36' E 022°44'511.0
2019-May-18 15:00N 59°35' E 022°34'611.2
2019-May-18 14:30N 59°33' E 022°24'611.2
2019-May-18 14:00N 59°30' E 022°15'611.1
2019-May-18 13:30N 59°27' E 022°05'611.2
2019-May-18 13:00N 59°23' E 021°56'511.0
2019-May-18 12:30N 59°20' E 021°47'611.1
2019-May-18 12:00N 59°17' E 021°38'611.2
2019-May-18 11:30N 59°14' E 021°29'611.3
2019-May-18 11:00N 59°11' E 021°20'611.5
2019-May-18 10:30N 59°08' E 021°10'611.5
2019-May-18 10:00N 59°05' E 021°01'611.5
2019-May-18 09:28N 59°01' E 020°51'911.3
2019-May-18 08:41N 58°56' E 020°36'311.3
2019-May-18 08:25N 58°55' E 020°32'5 0.3
2019-May-17 17:06N 58°52' E 020°25'0 0.2
2019-May-17 15:47N 58°51' E 020°25'32 5.5
2019-May-17 09:58N 59°09' E 021°17'511.5
2019-May-17 09:30N 59°12' E 021°25'611.3
2019-May-17 09:00N 59°15' E 021°34'611.2
2019-May-17 08:30N 59°19' E 021°43'611.2
2019-May-17 08:00N 59°22' E 021°53'611.2
2019-May-17 07:30N 59°25' E 022°02'611.1
2019-May-17 07:00N 59°28' E 022°11'611.0
2019-May-17 06:30N 59°31' E 022°20'611.1
2019-May-17 06:00N 59°34' E 022°29'611.1
2019-May-17 05:30N 59°36' E 022°39'510.9
2019-May-17 05:00N 59°37' E 022°50'611.1
2019-May-17 04:30N 59°39' E 023°00'510.7
2019-May-17 04:00N 59°44' E 023°03'4 8.1
2019-May-17 03:30N 59°48' E 023°04'611.6
2019-May-17 03:00N 59°49' E 023°16'4 8.1
2019-May-17 02:30N 59°53' E 023°14'0 0.1
2019-May-17 02:00N 59°53' E 023°14'0 0.0
2019-May-17 01:26N 59°53' E 023°14'0 0.0
2019-May-17 00:56N 59°53' E 023°14'0 0.0
2019-May-17 00:26N 59°53' E 023°14'0 0.0
2019-May-16 23:56N 59°53' E 023°14'0 0.0
2019-May-16 23:26N 59°53' E 023°14'0 0.0
2019-May-16 22:56N 59°53' E 023°14'0 0.0
2019-May-16 22:26N 59°53' E 023°14'0 0.0
2019-May-16 21:56N 59°53' E 023°14'0 0.0
2019-May-16 21:26N 59°53' E 023°14'0 0.0
2019-May-16 20:56N 59°53' E 023°14'0 0.1
2019-May-16 20:30N 59°53' E 023°14'4 7.1
2019-May-16 20:00N 59°50' E 023°17'611.1
2019-May-16 19:30N 59°48' E 023°07'4 7.4
2019-May-16 19:00N 59°45' E 023°03'5 9.6
2019-May-16 18:30N 59°40' E 023°04'5 9.9
2019-May-16 18:00N 59°38' E 022°55'510.8
2019-May-16 17:30N 59°36' E 022°45'510.9
2019-May-16 17:00N 59°35' E 022°34'510.7
2019-May-16 16:30N 59°33' E 022°25'511.0
2019-May-16 16:00N 59°30' E 022°16'611.2
2019-May-16 15:30N 59°26' E 022°07'611.9
2019-May-16 15:00N 59°23' E 021°57'611.9
2019-May-16 14:30N 59°20' E 021°48'611.5
2019-May-16 14:00N 59°16' E 021°39'611.3
2019-May-16 13:30N 59°13' E 021°30'611.1
2019-May-16 13:00N 59°10' E 021°21'10 0.4
2019-May-15 10:29N 59°15' E 021°37'711.6
2019-May-15 09:52N 59°19' E 021°48'411.4
2019-May-15 09:29N 59°22' E 021°55'511.0
2019-May-15 09:00N 59°25' E 022°04'611.1
2019-May-15 08:28N 59°28' E 022°13'511.4
2019-May-15 08:00N 59°32' E 022°21'612.5
2019-May-15 07:30N 59°35' E 022°32'612.2
2019-May-15 07:00N 59°36' E 022°44'611.4
2019-May-15 06:30N 59°38' E 022°55'510.6
2019-May-15 06:00N 59°41' E 023°03'510.2
2019-May-15 05:30N 59°46' E 023°01'4 8.4
2019-May-15 05:00N 59°48' E 023°08'510.2
2019-May-15 04:30N 59°50' E 023°17'3 6.0
2019-May-15 04:00N 59°53' E 023°14'0 0.0
2019-May-15 03:28N 59°53' E 023°14'0 0.0
2019-May-15 02:58N 59°53' E 023°14'0 0.0
2019-May-15 02:28N 59°53' E 023°14'0 0.0
2019-May-15 01:58N 59°53' E 023°14'0 0.0
2019-May-15 01:28N 59°53' E 023°14'0 0.0
2019-May-15 00:58N 59°53' E 023°14'0 0.0
2019-May-15 00:28N 59°53' E 023°14'0 0.0
2019-May-14 23:55N 59°53' E 023°14'0 0.0
2019-May-14 23:28N 59°53' E 023°14'0 0.0
2019-May-14 22:58N 59°53' E 023°14'0 0.0
2019-May-14 22:25N 59°53' E 023°14'0 0.0
2019-May-14 21:58N 59°53' E 023°14'0 0.0
2019-May-14 21:28N 59°53' E 023°14'0 0.0
2019-May-14 20:58N 59°53' E 023°14'0 0.0
2019-May-14 20:28N 59°53' E 023°14'0 0.0
2019-May-14 19:58N 59°53' E 023°14'0 0.0
2019-May-14 19:25N 59°53' E 023°14'0 0.0
2019-May-14 18:58N 59°53' E 023°14'0 0.0
2019-May-14 18:28N 59°53' E 023°14'0 0.0
2019-May-14 17:58N 59°53' E 023°14'0 0.0
2019-May-14 17:30N 59°53' E 023°14'1 1.8
2019-May-14 17:00N 59°52' E 023°15'4 8.4
2019-May-14 16:30N 59°48' E 023°13'611.8
2019-May-14 16:00N 59°47' E 023°02'4 8.9
2019-May-14 15:30N 59°43' E 023°05'4 8.8
2019-May-14 15:00N 59°39' E 023°01'611.2
2019-May-14 14:30N 59°37' E 022°50'611.3
2019-May-14 14:00N 59°36' E 022°40'611.5
2019-May-14 13:31N 59°34' E 022°29'611.2
2019-May-14 13:00N 59°31' E 022°20'611.0
2019-May-14 12:30N 59°28' E 022°11'611.3
2019-May-14 12:00N 59°24' E 022°02'611.4
2019-May-14 11:30N 59°21' E 021°53'611.2
2019-May-14 11:00N 59°17' E 021°45'611.4
2019-May-14 10:30N 59°14' E 021°36'611.4
2019-May-14 10:00N 59°10' E 021°27'1211.2
2019-May-14 08:56N 59°03' E 021°08'1111.3
2019-May-14 07:56N 58°57' E 020°51'611.4
2019-May-14 07:27N 58°53' E 020°42'18 0.9
2019-May-13 10:39N 59°04' E 021°09'211.5
2019-May-13 10:30N 59°05' E 021°12'611.5
2019-May-13 10:00N 59°09' E 021°20'1211.4
2019-May-13 08:56N 59°16' E 021°39'511.3
2019-May-13 08:30N 59°19' E 021°47'711.2
2019-May-13 07:53N 59°23' E 021°58'411.1
2019-May-13 07:30N 59°26' E 022°05'611.6
2019-May-13 07:00N 59°29' E 022°14'611.3
2019-May-13 06:30N 59°32' E 022°23'611.2
2019-May-13 06:00N 59°35' E 022°33'611.3
2019-May-13 05:30N 59°36' E 022°44'611.2
2019-May-13 05:00N 59°38' E 022°54'510.5
2019-May-13 04:30N 59°41' E 023°03'510.0
2019-May-13 04:00N 59°45' E 023°01'4 8.6
2019-May-13 03:30N 59°48' E 023°08'510.0
2019-May-13 03:00N 59°50' E 023°17'3 5.8
2019-May-13 02:30N 59°53' E 023°14'0 0.0
2019-May-13 02:00N 59°53' E 023°14'0 0.0
2019-May-13 01:29N 59°53' E 023°14'0 0.0
2019-May-13 00:59N 59°53' E 023°14'0 0.0
2019-May-13 00:29N 59°53' E 023°14'0 0.0
2019-May-12 23:59N 59°53' E 023°14'0 0.0
2019-May-12 23:29N 59°53' E 023°14'0 0.0
2019-May-12 22:59N 59°53' E 023°14'0 0.0
2019-May-12 22:26N 59°53' E 023°14'0 0.0
2019-May-12 21:59N 59°53' E 023°14'0 0.0
2019-May-12 21:26N 59°53' E 023°14'0 0.0
2019-May-12 20:56N 59°53' E 023°14'0 0.0
2019-May-12 20:29N 59°53' E 023°14'0 0.0
2019-May-12 19:59N 59°53' E 023°14'0 0.0
2019-May-12 19:29N 59°53' E 023°14'0 0.0
2019-May-12 18:55N 59°53' E 023°14'1 3.4
2019-May-12 18:30N 59°52' E 023°16'4 8.4
2019-May-12 18:00N 59°48' E 023°12'611.2
2019-May-12 17:30N 59°47' E 023°01'510.0
2019-May-12 17:00N 59°42' E 023°05'4 8.8
2019-May-12 16:30N 59°39' E 023°00'510.9
2019-May-12 16:00N 59°37' E 022°50'611.3
2019-May-12 15:30N 59°36' E 022°39'611.4
2019-May-12 15:00N 59°34' E 022°28'611.2
2019-May-12 14:30N 59°31' E 022°19'611.0
2019-May-12 14:00N 59°28' E 022°10'611.2
2019-May-12 13:30N 59°24' E 022°01'611.3
2019-May-12 13:00N 59°21' E 021°52'611.1
2019-May-12 12:30N 59°18' E 021°43'611.1
2019-May-12 11:58N 59°14' E 021°34'511.1
2019-May-12 11:30N 59°11' E 021°26'611.2
2019-May-12 10:58N 59°07' E 021°17'14 0.4
2019-May-10 22:34N 59°16' E 021°37'111.1
2019-May-10 22:27N 59°17' E 021°39'511.1
2019-May-10 21:59N 59°20' E 021°48'511.1
2019-May-10 21:30N 59°23' E 021°56'611.0
2019-May-10 21:00N 59°26' E 022°05'611.2
2019-May-10 20:30N 59°29' E 022°14'611.2
2019-May-10 20:00N 59°32' E 022°23'611.1
2019-May-10 19:30N 59°35' E 022°33'611.2
2019-May-10 19:00N 59°36' E 022°44'611.1
2019-May-10 18:30N 59°38' E 022°54'510.7
2019-May-10 18:00N 59°41' E 023°03'5 9.9
2019-May-10 17:30N 59°46' E 023°01'5 9.0
2019-May-10 17:00N 59°48' E 023°09'5 9.5
2019-May-10 16:30N 59°51' E 023°17'  

Dump ship's entire track history